Time;durP1;ratioP1;P1;durP2;ratioP2;P2;SDS_P1;SDS_P2;PMS_P1;PMS_P2;Temp;Humidity;BMP_temperature;BMP_pressure;BME280_temperature;BME280_humidity;BME280_pressure;Samples;Min_cycle;Max_cycle;Signal;HPM_P1;HPM_P2
2023/09/01 00:01:01;;;;;;;16.45;7.00;;;;;;;20.61;69.47;101232.44;5050060;28;20485;-43
2023/09/01 00:03:26;;;;;;;13.80;6.38;;;;;;;20.60;69.22;101225.41;5051838;28;20048;-42
2023/09/01 00:05:52;;;;;;;9.73;6.05;;;;;;;20.59;68.91;101234.25;5051118;28;20033;-43
2023/09/01 00:08:17;;;;;;;10.95;5.90;;;;;;;20.58;68.97;101243.97;5051532;28;20041;-43
2023/09/01 00:10:43;;;;;;;11.45;5.57;;;;;;;20.58;68.97;101241.31;5051044;28;20072;-45
2023/09/01 00:13:09;;;;;;;11.88;5.57;;;;;;;20.59;68.99;101240.41;5051771;28;20162;-43
2023/09/01 00:15:34;;;;;;;10.98;5.38;;;;;;;20.57;68.85;101236.03;5050738;28;20489;-45
2023/09/01 00:18:00;;;;;;;10.20;4.70;;;;;;;20.61;68.49;101235.94;5051240;28;20063;-43
2023/09/01 00:20:25;;;;;;;10.18;4.95;;;;;;;20.67;68.51;101236.75;5050943;28;20064;-44
2023/09/01 00:22:50;;;;;;;8.02;4.55;;;;;;;20.67;68.09;101240.25;5050517;28;20044;-49
2023/09/01 00:25:16;;;;;;;7.95;4.70;;;;;;;20.47;69.07;101238.03;5050891;28;20045;-50
2023/09/01 00:27:41;;;;;;;9.57;4.65;;;;;;;20.55;68.49;101237.88;5050630;28;20163;-43
2023/09/01 00:30:08;;;;;;;9.25;4.35;;;;;;;20.60;68.38;101252.75;5051155;28;20037;-45
2023/09/01 00:32:33;;;;;;;9.38;4.30;;;;;;;20.60;68.35;101257.19;5050836;28;20041;-48
2023/09/01 00:35:00;;;;;;;10.65;4.32;;;;;;;20.56;68.43;101255.50;5050876;28;20173;-43
2023/09/01 00:37:26;;;;;;;7.35;3.90;;;;;;;20.63;68.05;101249.16;5050987;28;20048;-45
2023/09/01 00:39:51;;;;;;;10.27;4.60;;;;;;;20.53;68.29;101252.91;5050476;28;20040;-44
2023/09/01 00:42:16;;;;;;;9.15;4.03;;;;;;;20.48;68.56;101247.72;5050659;28;20056;-44
2023/09/01 00:44:42;;;;;;;9.75;4.25;;;;;;;20.60;68.06;101247.47;5050211;28;20384;-48
2023/09/01 00:47:08;;;;;;;9.48;4.07;;;;;;;20.67;68.01;101243.75;5050839;28;20037;-44
2023/09/01 00:49:35;;;;;;;9.20;4.28;;;;;;;20.63;68.19;101239.44;5050747;28;20395;-44
2023/09/01 00:52:01;;;;;;;8.45;4.13;;;;;;;20.62;68.21;101235.03;5050840;28;20048;-45
2023/09/01 00:54:26;;;;;;;8.40;4.22;;;;;;;20.59;68.44;101236.91;5050661;28;20048;-47
2023/09/01 00:56:54;;;;;;;8.18;4.05;;;;;;;20.59;68.00;101247.50;5049988;28;20541;-43
2023/09/01 00:59:20;;;;;;;9.18;4.13;;;;;;;20.56;67.88;101239.59;5050759;28;20093;-44
2023/09/01 01:01:46;;;;;;;10.73;5.18;;;;;;;20.55;67.61;101244.03;5050254;28;20041;-44
2023/09/01 01:04:13;;;;;;;8.10;4.75;;;;;;;20.59;67.51;101235.13;5050231;28;20037;-44
2023/09/01 01:06:52;;;;;;;9.70;4.47;;;;;;;20.59;67.79;101236.91;5048347;28;20628;-47
2023/09/01 01:09:33;;;;;;;9.30;3.53;;;;;;;20.60;67.47;101241.28;5050329;28;20045;-43
2023/09/01 01:12:25;;;;;;;7.85;3.65;;;;;;;20.58;67.44;101245.75;5048489;28;20033;-43
2023/09/01 01:14:53;;;;;;;8.70;3.50;;;;;;;20.57;67.35;101242.22;5049814;28;20119;-44
2023/09/01 01:17:19;;;;;;;7.30;3.50;;;;;;;20.58;67.05;101248.41;5049964;28;20032;-43
2023/09/01 01:19:53;;;;;;;7.32;3.20;;;;;;;20.51;67.11;101239.69;5050114;28;20036;-46
2023/09/01 01:22:46;;;;;;;7.40;3.50;;;;;;;20.42;67.66;101247.88;5049013;28;20037;-45
2023/09/01 01:25:12;;;;;;;9.55;3.60;;;;;;;20.44;67.71;101256.63;5048459;28;20065;-46
2023/09/01 01:27:39;;;;;;;8.18;3.53;;;;;;;20.49;67.59;101254.75;5049245;28;20573;-46
2023/09/01 01:30:05;;;;;;;7.30;3.42;;;;;;;20.52;67.35;101252.06;5050139;28;20128;-44
2023/09/01 01:32:32;;;;;;;7.97;3.30;;;;;;;20.58;67.22;101251.91;5049309;28;20188;-46
2023/09/01 01:35:07;;;;;;;6.30;3.05;;;;;;;20.64;67.10;101246.47;5049708;28;20029;-45
2023/09/01 01:37:39;;;;;;;4.93;2.92;;;;;;;20.58;67.32;101241.31;5049091;28;20025;-45
2023/09/01 01:40:07;;;;;;;7.20;3.28;;;;;;;20.53;67.58;101237.91;5049908;28;20120;-48
2023/09/01 01:42:35;;;;;;;5.82;3.33;;;;;;;20.49;67.43;101238.84;5049282;28;20164;-48
2023/09/01 01:45:03;;;;;;;7.55;3.35;;;;;;;20.50;67.34;101234.44;5049829;28;20041;-43
2023/09/01 01:47:28;;;;;;;8.63;3.70;;;;;;;20.41;67.20;101234.66;5049701;28;20132;-44
2023/09/01 01:49:54;;;;;;;5.78;3.08;;;;;;;20.39;67.38;101239.09;5048893;28;20881;-42
2023/09/01 01:52:19;;;;;;;5.30;2.97;;;;;;;20.35;67.10;101234.78;5049300;28;20048;-46
2023/09/01 01:54:44;;;;;;;7.53;3.67;;;;;;;20.30;67.00;101233.97;5049204;28;20061;-46
2023/09/01 01:57:14;;;;;;;6.35;3.42;;;;;;;20.19;67.15;101242.13;5049041;28;20041;-44
2023/09/01 01:59:40;;;;;;;6.63;3.67;;;;;;;20.21;66.89;101238.53;5048716;28;20460;-46
2023/09/01 02:02:06;;;;;;;7.82;4.03;;;;;;;20.23;66.59;101238.53;5049617;28;20064;-47
2023/09/01 02:04:31;;;;;;;8.18;3.78;;;;;;;20.26;66.46;101234.03;5048908;28;20030;-48
2023/09/01 02:06:57;;;;;;;7.47;3.47;;;;;;;20.21;66.73;101237.66;5049206;28;20452;-44
2023/09/01 02:09:22;;;;;;;6.93;3.53;;;;;;;20.21;66.82;101235.91;5049273;28;20052;-48
2023/09/01 02:11:47;;;;;;;10.15;4.10;;;;;;;20.20;66.50;101222.69;5048719;28;20392;-44
2023/09/01 02:14:13;;;;;;;9.18;3.90;;;;;;;20.11;66.77;101220.25;5049357;28;20102;-45
2023/09/01 02:16:39;;;;;;;7.07;4.05;;;;;;;20.29;65.93;101213.69;5047562;28;20043;-46
2023/09/01 02:19:04;;;;;;;7.18;4.10;;;;;;;20.25;65.96;101223.44;5048953;28;20029;-43
2023/09/01 02:21:30;;;;;;;8.52;4.10;;;;;;;20.32;66.05;101227.75;5048524;28;20041;-46
2023/09/01 02:23:55;;;;;;;9.35;3.70;;;;;;;20.29;66.14;101233.09;5049065;28;20091;-43
2023/09/01 02:26:22;;;;;;;9.07;4.13;;;;;;;20.32;65.87;101229.50;5048681;28;20045;-48
2023/09/01 02:28:48;;;;;;;7.85;3.75;;;;;;;20.39;65.63;101236.44;5048144;28;20059;-43
2023/09/01 02:31:14;;;;;;;7.03;4.00;;;;;;;20.35;65.63;101234.78;5049226;28;20090;-44
2023/09/01 02:33:40;;;;;;;10.38;4.10;;;;;;;19.99;66.46;101229.31;5048297;28;20037;-47
2023/09/01 02:36:29;;;;;;;8.10;4.00;;;;;;;20.27;65.46;101229.59;5049026;28;20041;-48
2023/09/01 02:38:55;;;;;;;7.93;3.58;;;;;;;20.43;65.02;101216.97;5046798;28;20522;-46
2023/09/01 02:41:21;;;;;;;7.07;3.45;;;;;;;20.43;64.92;101224.91;5048718;28;20029;-42
2023/09/01 02:43:47;;;;;;;9.73;4.05;;;;;;;20.45;64.96;101225.72;5048631;28;20107;-44
2023/09/01 02:46:12;;;;;;;9.75;4.40;;;;;;;20.38;65.17;101221.47;5049560;28;20087;-43
2023/09/01 02:48:38;;;;;;;9.70;4.00;;;;;;;20.40;65.30;101212.59;5050947;28;20120;-46
2023/09/01 02:51:04;;;;;;;9.98;4.15;;;;;;;20.47;64.84;101211.56;5050067;28;20071;-50
2023/09/01 02:53:34;;;;;;;10.13;4.03;;;;;;;20.46;65.07;101216.88;5048310;28;20188;-47
2023/09/01 02:55:59;;;;;;;7.03;3.70;;;;;;;20.44;65.03;101208.09;5049056;28;20045;-44
2023/09/01 02:58:25;;;;;;;7.35;3.78;;;;;;;20.43;65.44;101204.56;5050849;28;20037;-46
2023/09/01 03:00:51;;;;;;;10.23;4.13;;;;;;;20.11;66.63;101204.34;5048924;28;20037;-47
2023/09/01 03:03:19;;;;;;;7.15;4.15;;;;;;;20.20;66.47;101201.50;5048426;28;20036;-49
2023/09/01 03:05:45;;;;;;;7.88;4.47;;;;;;;20.18;66.61;101204.22;5047356;28;20036;-45
2023/09/01 03:08:11;;;;;;;8.13;4.40;;;;;;;20.26;66.67;101204.91;5047938;28;20579;-46
2023/09/01 03:10:37;;;;;;;8.32;4.50;;;;;;;20.28;66.54;101204.88;5047624;28;20126;-48
2023/09/01 03:13:03;;;;;;;8.55;4.53;;;;;;;20.24;66.99;101208.50;5048005;28;20052;-45
2023/09/01 03:15:28;;;;;;;8.82;4.57;;;;;;;20.16;67.30;101206.00;5048025;28;20052;-44
2023/09/01 03:17:53;;;;;;;9.23;4.88;;;;;;;20.23;67.38;101212.03;5047038;28;20387;-47
2023/09/01 03:20:19;;;;;;;10.05;4.72;;;;;;;20.24;67.41;101211.16;5047949;28;20190;-44
2023/09/01 03:22:44;;;;;;;9.02;4.60;;;;;;;20.24;67.46;101212.03;5045926;28;20041;-44
2023/09/01 03:25:09;;;;;;;9.23;4.70;;;;;;;20.20;67.97;101212.97;5048177;28;20044;-46
2023/09/01 03:27:39;;;;;;;8.30;4.63;;;;;;;20.24;67.72;101217.31;5047089;28;20025;-45
2023/09/01 03:30:05;;;;;;;10.57;4.70;;;;;;;20.15;68.29;101221.91;5048089;28;20044;-47
2023/09/01 03:32:31;;;;;;;9.00;4.80;;;;;;;20.18;68.11;101212.16;5047490;28;20037;-47
2023/09/01 03:34:56;;;;;;;8.93;4.80;;;;;;;20.22;67.80;101205.00;5047566;28;20475;-49
2023/09/01 03:37:22;;;;;;;9.00;4.72;;;;;;;20.27;67.82;101208.41;5047581;28;20056;-44
2023/09/01 03:39:47;;;;;;;9.55;4.90;;;;;;;20.24;67.86;101209.38;5047367;28;20128;-45
2023/09/01 03:42:13;;;;;;;8.95;5.10;;;;;;;20.24;67.65;101206.72;5048258;28;20041;-44
2023/09/01 03:44:39;;;;;;;9.77;4.88;;;;;;;20.27;67.41;101217.25;5048367;28;20147;-46
2023/09/01 03:47:04;;;;;;;12.75;5.00;;;;;;;20.22;67.73;101207.66;5048775;28;20057;-43
2023/09/01 03:49:30;;;;;;;10.13;5.25;;;;;;;20.20;67.90;101210.31;5048555;28;20033;-44
2023/09/01 03:51:55;;;;;;;7.95;4.75;;;;;;;20.14;67.81;101204.28;5047930;28;20411;-44
2023/09/01 03:54:21;;;;;;;10.32;5.43;;;;;;;20.17;67.51;101201.59;5047820;28;20040;-42
2023/09/01 03:56:46;;;;;;;8.98;4.78;;;;;;;20.27;67.24;101203.13;5047458;28;20033;-45
2023/09/01 03:59:12;;;;;;;8.88;4.93;;;;;;;20.19;67.48;101202.41;5047809;28;20407;-43
2023/09/01 04:01:37;;;;;;;10.77;5.05;;;;;;;20.09;67.68;101198.22;5047149;28;20130;-45
2023/09/01 04:04:05;;;;;;;10.88;5.20;;;;;;;20.24;67.19;101195.25;5048017;28;20593;-44
2023/09/01 04:06:30;;;;;;;8.25;4.68;;;;;;;20.24;67.40;101193.50;5047301;28;20053;-44
2023/09/01 04:08:55;;;;;;;12.90;5.40;;;;;;;19.96;68.45;101189.66;5047871;28;20087;-45
2023/09/01 04:11:20;;;;;;;12.45;5.10;;;;;;;20.17;67.69;101191.00;5047875;28;20037;-45
2023/09/01 04:13:46;;;;;;;11.85;5.45;;;;;;;20.13;67.82;101194.59;5047253;28;20036;-47
2023/09/01 04:16:11;;;;;;;11.27;5.30;;;;;;;19.99;68.36;101197.53;5047428;28;20132;-46
2023/09/01 04:18:37;;;;;;;10.57;4.90;;;;;;;20.21;67.20;101195.31;5046663;28;20518;-44
2023/09/01 04:21:02;;;;;;;9.98;5.35;;;;;;;20.13;67.88;101189.28;5047363;28;20429;-48
2023/09/01 04:23:28;;;;;;;10.23;5.13;;;;;;;20.15;67.67;101191.03;5047684;28;20756;-42
2023/09/01 04:25:53;;;;;;;9.32;5.40;;;;;;;19.78;68.90;101190.88;5045426;28;20124;-44
2023/09/01 04:28:19;;;;;;;10.20;5.88;;;;;;;19.94;68.47;101194.13;5047682;28;20483;-49
2023/09/01 04:30:48;;;;;;;9.98;5.55;;;;;;;20.06;68.07;101199.16;5046761;28;20049;-49
2023/09/01 04:33:13;;;;;;;9.13;5.30;;;;;;;20.14;67.91;101201.63;5047083;28;20067;-46
2023/09/01 04:35:39;;;;;;;9.98;5.40;;;;;;;19.96;68.56;101204.66;5046118;28;20041;-42
2023/09/01 04:38:04;;;;;;;10.90;5.47;;;;;;;19.96;68.74;101196.72;5047238;28;20037;-42
2023/09/01 04:40:30;;;;;;;9.32;5.70;;;;;;;20.10;68.13;101213.19;5049542;28;20107;-45
2023/09/01 04:42:56;;;;;;;9.02;5.68;;;;;;;20.16;68.00;101199.84;5050717;28;20352;-45
2023/09/01 04:45:22;;;;;;;10.68;5.45;;;;;;;20.17;68.00;101199.81;5050936;28;20045;-41
2023/09/01 04:47:48;;;;;;;9.68;5.95;;;;;;;19.71;69.33;101205.13;5050350;28;20489;-42
2023/09/01 04:50:14;;;;;;;10.30;5.70;;;;;;;19.94;68.68;101202.06;5050259;28;20488;-49
2023/09/01 04:52:39;;;;;;;11.52;5.80;;;;;;;20.02;68.20;101207.19;5050268;28;20044;-44
2023/09/01 04:55:05;;;;;;;9.40;5.60;;;;;;;19.97;68.63;101201.97;5050922;28;20087;-43
2023/09/01 04:57:31;;;;;;;9.43;5.70;;;;;;;19.85;68.73;101213.69;5050057;28;20344;-45
2023/09/01 04:59:57;;;;;;;9.77;5.43;;;;;;;19.94;68.67;101212.66;5050547;28;20044;-44
2023/09/01 05:02:22;;;;;;;8.60;5.40;;;;;;;20.00;68.25;101196.66;5050688;28;20801;-48
2023/09/01 05:04:48;;;;;;;12.02;5.60;;;;;;;20.10;67.96;101200.84;5050174;28;20058;-44
2023/09/01 05:07:13;;;;;;;10.95;5.50;;;;;;;20.05;68.29;101204.47;5050220;28;20101;-43
2023/09/01 05:09:39;;;;;;;10.90;6.00;;;;;;;19.79;68.65;101194.41;5048220;28;20059;-46
2023/09/01 05:12:05;;;;;;;11.73;5.43;;;;;;;19.89;68.56;101201.25;5050654;28;20136;-45
2023/09/01 05:14:30;;;;;;;8.57;5.30;;;;;;;20.01;68.29;101195.72;5049768;28;20457;-43
2023/09/01 05:16:56;;;;;;;12.40;5.18;;;;;;;20.10;68.18;101189.38;5050102;28;20033;-44
2023/09/01 05:19:21;;;;;;;8.40;5.45;;;;;;;19.89;68.68;101201.25;5050541;28;20489;-44
2023/09/01 05:21:48;;;;;;;10.73;5.43;;;;;;;19.83;68.82;101204.88;5049395;28;20041;-48
2023/09/01 05:24:13;;;;;;;11.23;5.65;;;;;;;19.78;69.07;101208.53;5050226;28;20032;-49
2023/09/01 05:26:38;;;;;;;12.48;6.40;;;;;;;19.82;68.91;101213.72;5049054;28;20048;-44
2023/09/01 05:29:04;;;;;;;10.35;5.80;;;;;;;19.75;69.20;101205.97;5050238;28;20060;-45
2023/09/01 05:31:29;;;;;;;10.93;5.55;;;;;;;20.10;68.26;101214.06;5049650;28;20479;-43
2023/09/01 05:33:55;;;;;;;11.07;5.50;;;;;;;19.63;69.52;101204.41;5048609;28;20037;-43
2023/09/01 05:36:20;;;;;;;8.25;5.25;;;;;;;19.80;68.97;101210.25;5049996;28;20041;-47
2023/09/01 05:38:45;;;;;;;9.65;5.60;;;;;;;19.71;69.31;101202.47;5050145;28;20123;-44
2023/09/01 05:41:12;;;;;;;10.05;5.30;;;;;;;19.82;68.92;101205.78;5050320;28;20124;-43
2023/09/01 05:43:38;;;;;;;9.02;5.40;;;;;;;20.11;68.20;101204.34;5049234;28;20060;-48
2023/09/01 05:46:03;;;;;;;10.20;5.28;;;;;;;20.02;68.45;101192.16;5049619;28;20095;-43
2023/09/01 05:48:29;;;;;;;10.73;5.18;;;;;;;20.19;67.81;101197.09;5049750;28;20106;-44
2023/09/01 05:50:54;;;;;;;7.75;5.20;;;;;;;20.08;67.99;101199.09;5048664;28;20508;-46
2023/09/01 05:53:21;;;;;;;9.25;5.38;;;;;;;20.02;68.08;101210.69;5049470;28;20615;-43
2023/09/01 05:55:46;;;;;;;9.90;5.70;;;;;;;19.82;68.58;101211.09;5048904;28;20063;-44
2023/09/01 05:58:12;;;;;;;11.70;5.25;;;;;;;20.15;68.08;101212.19;5049616;28;20065;-43
2023/09/01 06:00:37;;;;;;;9.32;4.90;;;;;;;20.20;67.84;101212.97;5049948;28;20041;-44
2023/09/01 06:03:03;;;;;;;9.80;5.20;;;;;;;20.22;67.77;101220.88;5049724;28;20045;-44
2023/09/01 06:05:29;;;;;;;8.63;5.20;;;;;;;20.17;67.63;101218.34;5049588;28;20707;-42
2023/09/01 06:07:54;;;;;;;10.68;5.50;;;;;;;20.00;68.17;101214.28;5048760;28;20036;-43
2023/09/01 06:10:20;;;;;;;11.00;5.50;;;;;;;20.03;68.20;101220.38;5048994;28;20041;-43
2023/09/01 06:12:46;;;;;;;12.50;5.30;;;;;;;20.31;67.56;101233.06;5048939;28;20061;-43
2023/09/01 06:15:11;;;;;;;10.00;5.43;;;;;;;20.13;67.90;101223.72;5049379;28;20060;-43
2023/09/01 06:17:37;;;;;;;8.68;5.40;;;;;;;20.41;67.34;101219.63;5048337;28;20388;-44
2023/09/01 06:20:04;;;;;;;10.38;5.10;;;;;;;20.55;66.87;101222.00;5050363;28;20068;-44
2023/09/01 06:22:30;;;;;;;8.65;5.15;;;;;;;20.14;67.97;101226.34;5049953;28;20037;-44
2023/09/01 06:24:55;;;;;;;8.63;4.90;;;;;;;20.50;67.05;101224.72;5050221;28;20733;-43
2023/09/01 06:27:20;;;;;;;9.63;4.95;;;;;;;20.70;66.51;101226.94;5048661;28;20033;-45
2023/09/01 06:29:46;;;;;;;11.13;5.22;;;;;;;20.71;66.50;101223.38;5049778;28;20052;-44
2023/09/01 06:32:11;;;;;;;8.95;4.85;;;;;;;20.66;66.70;101225.25;5050066;28;20040;-47
2023/09/01 06:34:40;;;;;;;9.43;5.10;;;;;;;20.72;66.38;101230.41;5049603;28;20037;-42
2023/09/01 06:37:05;;;;;;;7.82;5.30;;;;;;;20.77;65.93;101233.84;5050101;28;20060;-43
2023/09/01 06:39:30;;;;;;;8.05;5.25;;;;;;;20.20;68.31;101233.28;5050165;28;20040;-44
2023/09/01 06:41:57;;;;;;;7.90;4.80;;;;;;;20.27;67.91;101234.91;5050233;28;20041;-42
2023/09/01 06:44:22;;;;;;;9.50;4.95;;;;;;;20.62;66.36;101234.16;5051320;28;20029;-47
2023/09/01 06:46:48;;;;;;;8.30;5.20;;;;;;;20.26;67.90;101241.97;5053029;28;20521;-44
2023/09/01 06:49:14;;;;;;;8.40;4.82;;;;;;;20.69;66.44;101234.91;5052505;28;20094;-43
2023/09/01 06:51:40;;;;;;;7.45;4.80;;;;;;;20.77;66.28;101239.13;5051343;28;20036;-46
2023/09/01 06:54:05;;;;;;;7.60;4.78;;;;;;;20.53;66.85;101237.91;5054983;28;20037;-47
2023/09/01 06:56:31;;;;;;;10.80;5.25;;;;;;;20.58;66.68;101233.38;5055600;28;20029;-45
2023/09/01 06:58:56;;;;;;;9.98;5.28;;;;;;;20.63;66.43;101234.13;5052296;28;20118;-46
2023/09/01 07:01:21;;;;;;;8.88;5.32;;;;;;;20.42;67.13;101226.69;5049191;28;20388;-45
2023/09/01 07:03:47;;;;;;;7.13;4.70;;;;;;;20.62;66.91;101231.50;5049303;28;20060;-45
2023/09/01 07:06:12;;;;;;;9.18;5.15;;;;;;;20.39;67.43;101228.50;5049238;28;20057;-43
2023/09/01 07:08:38;;;;;;;7.65;4.80;;;;;;;20.85;65.80;101229.25;5049274;28;20045;-49
2023/09/01 07:11:05;;;;;;;8.73;4.63;;;;;;;20.31;67.99;101235.72;5049810;28;20044;-44
2023/09/01 07:13:31;;;;;;;8.45;4.68;;;;;;;20.41;67.52;101235.53;5049049;28;20063;-47
2023/09/01 07:15:56;;;;;;;8.48;4.80;;;;;;;20.72;66.59;101230.41;5049579;28;20037;-43
2023/09/01 07:18:23;;;;;;;8.68;4.90;;;;;;;20.82;66.39;101231.06;5049874;28;20519;-44
2023/09/01 07:20:49;;;;;;;7.05;4.63;;;;;;;20.95;66.20;101225.47;5049070;28;20037;-44
2023/09/01 07:23:15;;;;;;;8.98;4.70;;;;;;;20.87;65.81;101227.41;5049371;28;20033;-43
2023/09/01 07:25:42;;;;;;;9.00;4.68;;;;;;;21.11;65.59;101222.41;5048687;28;20052;-44
2023/09/01 07:28:07;;;;;;;8.35;4.50;;;;;;;20.90;66.38;101221.19;5049480;28;20061;-45
2023/09/01 07:30:33;;;;;;;7.07;4.57;;;;;;;21.02;65.60;101219.09;5048857;28;20506;-44
2023/09/01 07:32:59;;;;;;;10.23;4.85;;;;;;;20.83;65.37;101232.81;5047893;28;20037;-44
2023/09/01 07:35:25;;;;;;;8.45;4.57;;;;;;;20.95;65.30;101227.22;5049216;28;20069;-47
2023/09/01 07:37:50;;;;;;;7.82;4.50;;;;;;;21.19;64.78;101226.69;5048477;28;20071;-43
2023/09/01 07:40:16;;;;;;;9.57;4.50;;;;;;;21.22;65.39;101216.00;5049409;28;20040;-45
2023/09/01 07:42:41;;;;;;;7.95;4.60;;;;;;;20.93;66.00;101219.31;5049129;28;20036;-44
2023/09/01 07:45:07;;;;;;;6.20;4.47;;;;;;;20.95;66.32;101212.19;5049856;28;20037;-43
2023/09/01 07:47:33;;;;;;;7.97;4.63;;;;;;;20.85;66.36;101220.41;5048571;28;20171;-47
2023/09/01 07:49:58;;;;;;;8.07;4.68;;;;;;;21.06;65.47;101223.41;5049244;28;20041;-48
2023/09/01 07:52:23;;;;;;;6.95;4.30;;;;;;;21.20;65.40;101220.47;5049411;28;20029;-47
2023/09/01 07:54:49;;;;;;;8.63;4.47;;;;;;;20.90;66.14;101218.53;5049225;28;20558;-44
2023/09/01 07:57:14;;;;;;;8.02;4.72;;;;;;;21.17;65.22;101220.53;5050217;28;20499;-46
2023/09/01 07:59:40;;;;;;;8.32;4.22;;;;;;;21.20;65.25;101223.13;5049708;28;20511;-43
2023/09/01 08:02:05;;;;;;;7.38;4.43;;;;;;;21.21;65.61;101216.03;5051092;28;20033;-44
2023/09/01 08:04:31;;;;;;;6.80;4.20;;;;;;;21.36;64.87;101224.47;5050503;28;20135;-47
2023/09/01 08:06:59;;;;;;;8.70;4.50;;;;;;;21.16;65.81;101223.25;5056854;22;20129;-41
2023/09/01 08:09:25;;;;;;;7.57;4.43;;;;;;;21.31;65.27;101223.72;5029978;28;20107;-43
2023/09/01 08:11:51;;;;;;;9.65;4.45;;;;;;;21.48;64.99;101225.06;5029469;28;20037;-39
2023/09/01 08:14:16;;;;;;;8.07;4.60;;;;;;;21.23;65.50;101222.16;5031755;28;20716;-41
2023/09/01 08:16:42;;;;;;;7.60;4.50;;;;;;;21.24;65.45;101215.94;5032019;28;20029;-40
2023/09/01 08:19:07;;;;;;;6.85;4.43;;;;;;;21.32;64.94;101228.13;5032884;28;20037;-39
2023/09/01 08:21:33;;;;;;;8.95;4.18;;;;;;;21.60;64.37;101228.25;5032449;28;20551;-39
2023/09/01 08:23:59;;;;;;;7.05;4.38;;;;;;;21.38;64.54;101229.75;5032758;28;20063;-39
2023/09/01 08:26:25;;;;;;;7.45;4.40;;;;;;;21.64;64.47;101229.06;5032355;28;20622;-39
2023/09/01 08:28:51;;;;;;;7.82;4.72;;;;;;;21.63;64.66;101230.84;5032134;28;20060;-43
2023/09/01 08:31:16;;;;;;;7.35;4.40;;;;;;;21.83;64.27;101235.63;5032275;28;20404;-43
2023/09/01 08:33:43;;;;;;;6.85;4.60;;;;;;;21.87;63.98;101239.94;5031491;28;20045;-42
2023/09/01 08:36:09;;;;;;;8.02;4.47;;;;;;;22.08;63.33;101238.50;5032355;28;20041;-41
2023/09/01 08:38:35;;;;;;;8.52;5.05;;;;;;;22.12;63.49;101233.06;5032193;28;20545;-42
2023/09/01 08:41:04;;;;;;;9.20;4.85;;;;;;;22.06;63.19;101238.53;5032410;28;20086;-44
2023/09/01 08:43:34;;;;;;;9.00;4.68;;;;;;;22.05;63.16;101243.88;5031879;28;20403;-44
2023/09/01 08:46:02;;;;;;;7.43;5.28;;;;;;;21.94;63.15;101249.47;5032226;28;20034;-39
2023/09/01 08:48:27;;;;;;;7.50;4.82;;;;;;;21.92;63.27;101250.41;5032147;28;20037;-40
2023/09/01 08:50:54;;;;;;;9.00;4.80;;;;;;;21.80;63.72;101246.31;5032167;28;20507;-45
2023/09/01 08:53:19;;;;;;;8.48;5.25;;;;;;;21.80;63.63;101246.31;5032443;28;20037;-42
2023/09/01 08:55:45;;;;;;;9.65;5.30;;;;;;;21.85;63.17;101247.06;5031472;28;20044;-39
2023/09/01 08:58:10;;;;;;;8.65;5.50;;;;;;;21.63;63.80;101252.06;5031829;28;20045;-41
2023/09/01 09:00:35;;;;;;;8.77;5.45;;;;;;;21.85;63.36;101247.94;5031103;28;20033;-44
2023/09/01 09:03:01;;;;;;;10.27;5.35;;;;;;;21.68;63.46;101254.59;5031557;28;20076;-42
2023/09/01 09:05:27;;;;;;;9.45;5.40;;;;;;;21.88;63.39;101265.56;5031702;28;20038;-45
2023/09/01 09:08:04;;;;;;;7.88;5.00;;;;;;;21.63;63.78;101265.34;5030959;28;20041;-43
2023/09/01 09:10:37;;;;;;;8.10;5.40;;;;;;;21.76;63.28;101265.91;5031584;28;20068;-41
2023/09/01 09:13:28;;;;;;;7.75;5.20;;;;;;;21.68;63.93;101267.88;5032455;28;20038;-39
2023/09/01 09:16:06;;;;;;;8.77;5.20;;;;;;;21.79;63.86;101273.75;5031349;28;20082;-41
2023/09/01 09:18:31;;;;;;;9.52;5.30;;;;;;;21.48;64.52;101271.03;5030983;28;20041;-39
2023/09/01 09:20:57;;;;;;;7.78;5.20;;;;;;;21.33;65.52;101261.69;5031424;28;20515;-40
2023/09/01 09:23:42;;;;;;;9.27;5.57;;;;;;;21.45;65.15;101269.34;5031345;28;20029;-43
2023/09/01 09:26:07;;;;;;;9.10;5.07;;;;;;;21.75;64.79;101274.75;5030649;28;20064;-42
2023/09/01 09:28:33;;;;;;;9.65;5.50;;;;;;;21.78;64.15;101269.34;5030675;28;20504;-40
2023/09/01 09:31:00;;;;;;;8.50;5.30;;;;;;;22.10;63.54;101263.22;5031495;28;20095;-40
2023/09/01 09:33:34;;;;;;;7.93;5.00;;;;;;;21.91;63.84;101260.16;5031199;28;20079;-39
2023/09/01 09:36:00;;;;;;;10.93;5.88;;;;;;;21.81;64.27;101256.91;5030938;28;20124;-42
2023/09/01 09:38:43;;;;;;;9.23;5.15;;;;;;;22.51;62.41;101262.00;5029863;28;20048;-42
2023/09/01 09:41:08;;;;;;;8.93;6.00;;;;;;;22.02;63.05;101265.19;5030967;28;20033;-40
2023/09/01 09:43:48;;;;;;;10.57;5.60;;;;;;;22.79;61.05;101265.63;5030472;28;20043;-44
2023/09/01 09:46:15;;;;;;;11.27;5.65;;;;;;;23.02;60.30;101275.53;5030428;28;20037;-45
2023/09/01 09:48:41;;;;;;;9.25;5.88;;;;;;;23.33;59.06;101278.97;5030129;28;20042;-42
2023/09/01 09:51:08;;;;;;;8.48;5.80;;;;;;;23.38;59.86;101284.13;5030782;28;20045;-38
2023/09/01 09:53:38;;;;;;;10.93;6.15;;;;;;;23.63;58.28;101287.75;5030639;28;20552;-41
2023/09/01 09:56:30;;;;;;;10.70;6.40;;;;;;;23.47;58.08;101288.31;5030460;28;20644;-43
2023/09/01 09:59:01;;;;;;;12.02;6.60;;;;;;;23.43;58.92;101291.03;5030511;28;20404;-43
2023/09/01 10:01:30;;;;;;;11.48;7.25;;;;;;;23.09;59.34;101295.72;5031139;28;20037;-40
2023/09/01 10:03:56;;;;;;;13.18;7.18;;;;;;;23.25;58.88;101293.41;5031858;28;20041;-42
2023/09/01 10:06:23;;;;;;;10.55;6.60;;;;;;;23.32;59.33;101287.84;5031104;28;20048;-40
2023/09/01 10:08:51;;;;;;;10.45;6.70;;;;;;;23.38;59.89;101284.13;5030187;28;20045;-39
2023/09/01 10:11:16;;;;;;;11.02;6.60;;;;;;;23.38;59.03;101286.78;5030628;28;20033;-39
2023/09/01 10:13:47;;;;;;;11.13;7.28;;;;;;;23.38;59.57;101289.44;5029537;28;20033;-40
2023/09/01 10:16:13;;;;;;;11.20;7.57;;;;;;;23.65;58.96;101296.56;5030163;28;20033;-41
2023/09/01 10:18:43;;;;;;;11.45;7.57;;;;;;;23.68;58.89;101304.41;5030120;28;20168;-39
2023/09/01 10:21:08;;;;;;;11.88;8.20;;;;;;;23.59;59.28;101311.88;5030313;28;20041;-40
2023/09/01 10:23:33;;;;;;;10.38;7.88;;;;;;;23.88;58.80;101313.53;5030043;28;20045;-39
2023/09/01 10:26:28;;;;;;;12.80;7.63;;;;;;;24.03;58.66;101316.50;5030026;28;20061;-41
2023/09/01 10:29:00;;;;;;;11.52;7.60;;;;;;;24.26;56.44;101323.75;5030192;28;20067;-44
2023/09/01 10:31:26;;;;;;;10.02;8.20;;;;;;;23.60;59.32;101322.47;5030636;28;20041;-40
2023/09/01 10:34:08;;;;;;;11.88;7.63;;;;;;;23.77;58.66;101321.88;5030075;28;20124;-43
2023/09/01 10:36:34;;;;;;;11.82;7.78;;;;;;;24.04;58.20;101322.72;5029156;28;20682;-40
2023/09/01 10:39:23;;;;;;;11.65;7.93;;;;;;;24.43;58.02;101324.00;5030530;28;20045;-43
2023/09/01 10:42:08;;;;;;;12.15;7.18;;;;;;;24.73;56.70;101319.31;5029678;28;20049;-42
2023/09/01 10:44:39;;;;;;;10.27;7.30;;;;;;;24.88;56.01;101320.53;5029763;28;20037;-40
2023/09/01 10:47:30;;;;;;;13.20;7.43;;;;;;;24.98;55.54;101321.94;5029873;28;20041;-41
2023/09/01 10:50:01;;;;;;;10.63;7.60;;;;;;;25.10;55.02;101320.56;5029643;28;20115;-44
2023/09/01 10:52:28;;;;;;;11.18;7.63;;;;;;;25.01;55.83;101325.34;5029907;28;20109;-42
2023/09/01 10:54:59;;;;;;;12.65;9.10;;;;;;;24.99;55.43;101329.88;5029500;28;20056;-45
2023/09/01 10:57:49;;;;;;;11.98;7.93;;;;;;;25.22;54.59;101320.09;5030070;28;20034;-40
2023/09/01 11:00:26;;;;;;;12.35;8.20;;;;;;;25.11;53.88;101328.53;5030203;28;20099;-43
2023/09/01 11:02:52;;;;;;;11.00;8.13;;;;;;;24.43;56.14;101320.44;5029452;28;20046;-46
2023/09/01 11:05:37;;;;;;;12.98;9.05;;;;;;;24.65;56.49;101319.59;5030222;28;20072;-40
2023/09/01 11:08:17;;;;;;;10.82;8.00;;;;;;;24.95;55.27;101320.25;5029840;28;20068;-41
2023/09/01 11:10:43;;;;;;;18.50;9.20;;;;;;;24.42;57.06;101324.03;5029926;28;20044;-40
2023/09/01 11:13:18;;;;;;;11.35;7.93;;;;;;;24.13;58.80;101333.06;5030650;28;20045;-40
2023/09/01 11:15:49;;;;;;;12.02;8.20;;;;;;;24.57;56.75;101336.81;5029541;28;20511;-40
2023/09/01 11:18:19;;;;;;;13.80;8.52;;;;;;;24.90;55.74;101334.69;5030322;28;20056;-41
2023/09/01 11:20:46;;;;;;;11.35;8.18;;;;;;;24.69;56.09;101338.16;5029791;28;20478;-41
2023/09/01 11:23:12;;;;;;;10.50;7.80;;;;;;;25.07;55.18;101331.38;5030381;28;20052;-39